sensor_id;sensor_type;location;lat;lon;timestamp;temperature;humidity
15355;DHT22;7777;52.254;9.618;2022-10-26T00:00:50;10.70;99.90
15355;DHT22;7777;52.254;9.618;2022-10-26T00:03:27;10.70;99.90
15355;DHT22;7777;52.254;9.618;2022-10-26T00:05:53;10.70;99.90
15355;DHT22;7777;52.254;9.618;2022-10-26T00:08:18;10.70;99.90
15355;DHT22;7777;52.254;9.618;2022-10-26T00:10:44;10.70;99.90
15355;DHT22;7777;52.254;9.618;2022-10-26T00:13:12;10.70;99.90
15355;DHT22;7777;52.254;9.618;2022-10-26T00:15:41;10.70;99.90
15355;DHT22;7777;52.254;9.618;2022-10-26T00:18:07;10.70;99.90
15355;DHT22;7777;52.254;9.618;2022-10-26T00:20:34;10.80;99.90
15355;DHT22;7777;52.254;9.618;2022-10-26T00:22:59;10.80;99.90
15355;DHT22;7777;52.254;9.618;2022-10-26T00:25:25;10.80;99.90
15355;DHT22;7777;52.254;9.618;2022-10-26T00:27:51;10.80;99.90
15355;DHT22;7777;52.254;9.618;2022-10-26T00:30:17;10.80;99.90
15355;DHT22;7777;52.254;9.618;2022-10-26T00:32:43;10.80;99.90
15355;DHT22;7777;52.254;9.618;2022-10-26T00:35:08;10.80;99.90
15355;DHT22;7777;52.254;9.618;2022-10-26T00:37:34;10.80;99.90
15355;DHT22;7777;52.254;9.618;2022-10-26T00:40:00;10.80;99.90
15355;DHT22;7777;52.254;9.618;2022-10-26T00:42:25;10.80;99.90
15355;DHT22;7777;52.254;9.618;2022-10-26T00:44:56;10.80;99.90
15355;DHT22;7777;52.254;9.618;2022-10-26T00:47:41;10.80;99.90
15355;DHT22;7777;52.254;9.618;2022-10-26T00:50:24;10.80;99.90
15355;DHT22;7777;52.254;9.618;2022-10-26T00:52:53;10.90;99.90
15355;DHT22;7777;52.254;9.618;2022-10-26T00:55:23;10.90;99.90
15355;DHT22;7777;52.254;9.618;2022-10-26T00:57:52;10.90;99.90
15355;DHT22;7777;52.254;9.618;2022-10-26T01:00:19;10.90;99.90
15355;DHT22;7777;52.254;9.618;2022-10-26T01:02:46;10.80;99.90
15355;DHT22;7777;52.254;9.618;2022-10-26T01:05:14;10.90;99.90
15355;DHT22;7777;52.254;9.618;2022-10-26T01:07:42;10.90;99.90
15355;DHT22;7777;52.254;9.618;2022-10-26T01:10:09;10.90;99.90
15355;DHT22;7777;52.254;9.618;2022-10-26T01:12:36;10.90;99.90
15355;DHT22;7777;52.254;9.618;2022-10-26T01:15:03;10.90;99.90
15355;DHT22;7777;52.254;9.618;2022-10-26T01:17:55;10.90;99.90
15355;DHT22;7777;52.254;9.618;2022-10-26T01:29:12;10.80;99.90
15355;DHT22;7777;52.254;9.618;2022-10-26T01:31:47;10.80;99.90
15355;DHT22;7777;52.254;9.618;2022-10-26T01:34:23;10.80;99.90
15355;DHT22;7777;52.254;9.618;2022-10-26T01:37:08;10.90;99.90
15355;DHT22;7777;52.254;9.618;2022-10-26T01:39:51;10.80;99.90
15355;DHT22;7777;52.254;9.618;2022-10-26T01:42:21;10.80;99.90
15355;DHT22;7777;52.254;9.618;2022-10-26T01:45:01;10.80;99.90
15355;DHT22;7777;52.254;9.618;2022-10-26T01:47:30;10.90;99.90
15355;DHT22;7777;52.254;9.618;2022-10-26T01:49:59;10.90;99.90
15355;DHT22;7777;52.254;9.618;2022-10-26T01:52:27;10.90;99.90
15355;DHT22;7777;52.254;9.618;2022-10-26T01:55:04;10.80;99.90
15355;DHT22;7777;52.254;9.618;2022-10-26T01:57:51;10.90;99.90
15355;DHT22;7777;52.254;9.618;2022-10-26T02:00:19;10.90;99.90
15355;DHT22;7777;52.254;9.618;2022-10-26T02:06:24;10.90;99.90
15355;DHT22;7777;52.254;9.618;2022-10-26T02:18:14;10.90;99.90
15355;DHT22;7777;52.254;9.618;2022-10-26T02:20:52;10.90;99.90
15355;DHT22;7777;52.254;9.618;2022-10-26T02:23:21;10.90;99.90
15355;DHT22;7777;52.254;9.618;2022-10-26T02:25:52;10.90;99.90
15355;DHT22;7777;52.254;9.618;2022-10-26T02:28:27;10.90;99.90
15355;DHT22;7777;52.254;9.618;2022-10-26T02:30:57;10.90;99.90
15355;DHT22;7777;52.254;9.618;2022-10-26T02:33:25;10.90;99.90
15355;DHT22;7777;52.254;9.618;2022-10-26T02:35:59;11.00;99.90
15355;DHT22;7777;52.254;9.618;2022-10-26T02:38:26;11.00;99.90
15355;DHT22;7777;52.254;9.618;2022-10-26T02:40:54;11.00;99.90
15355;DHT22;7777;52.254;9.618;2022-10-26T02:43:21;11.00;99.90
15355;DHT22;7777;52.254;9.618;2022-10-26T02:45:58;11.00;99.90
15355;DHT22;7777;52.254;9.618;2022-10-26T02:48:28;11.00;99.90
15355;DHT22;7777;52.254;9.618;2022-10-26T02:51:02;11.00;99.90
15355;DHT22;7777;52.254;9.618;2022-10-26T02:56:13;11.00;99.90
15355;DHT22;7777;52.254;9.618;2022-10-26T02:58:49;11.00;99.90
15355;DHT22;7777;52.254;9.618;2022-10-26T03:01:17;11.10;99.90
15355;DHT22;7777;52.254;9.618;2022-10-26T03:03:43;11.10;99.90
15355;DHT22;7777;52.254;9.618;2022-10-26T03:06:09;11.00;99.90
15355;DHT22;7777;52.254;9.618;2022-10-26T03:08:35;11.10;99.90
15355;DHT22;7777;52.254;9.618;2022-10-26T03:11:00;11.10;99.90
15355;DHT22;7777;52.254;9.618;2022-10-26T03:13:26;11.10;99.90
15355;DHT22;7777;52.254;9.618;2022-10-26T03:15:55;11.10;99.90
15355;DHT22;7777;52.254;9.618;2022-10-26T03:18:21;11.10;99.90
15355;DHT22;7777;52.254;9.618;2022-10-26T03:20:47;11.10;99.90
15355;DHT22;7777;52.254;9.618;2022-10-26T03:23:13;11.10;99.90
15355;DHT22;7777;52.254;9.618;2022-10-26T03:25:39;11.10;99.90
15355;DHT22;7777;52.254;9.618;2022-10-26T03:28:05;11.20;99.90
15355;DHT22;7777;52.254;9.618;2022-10-26T03:30:31;11.20;99.90
15355;DHT22;7777;52.254;9.618;2022-10-26T03:32:57;11.20;99.90
15355;DHT22;7777;52.254;9.618;2022-10-26T03:35:23;11.20;99.90
15355;DHT22;7777;52.254;9.618;2022-10-26T03:37:49;11.20;99.90
15355;DHT22;7777;52.254;9.618;2022-10-26T03:40:15;11.20;99.90
15355;DHT22;7777;52.254;9.618;2022-10-26T03:42:41;11.20;99.90
15355;DHT22;7777;52.254;9.618;2022-10-26T03:45:07;11.20;99.90
15355;DHT22;7777;52.254;9.618;2022-10-26T03:47:41;11.20;99.90
15355;DHT22;7777;52.254;9.618;2022-10-26T03:50:11;11.20;99.90
15355;DHT22;7777;52.254;9.618;2022-10-26T03:52:39;11.20;99.90
15355;DHT22;7777;52.254;9.618;2022-10-26T03:55:05;11.10;99.90
15355;DHT22;7777;52.254;9.618;2022-10-26T03:57:32;11.10;99.90
15355;DHT22;7777;52.254;9.618;2022-10-26T03:59:57;11.10;99.90
15355;DHT22;7777;52.254;9.618;2022-10-26T04:02:23;11.00;99.90
15355;DHT22;7777;52.254;9.618;2022-10-26T04:04:49;11.00;99.90
15355;DHT22;7777;52.254;9.618;2022-10-26T04:07:14;11.00;99.90
15355;DHT22;7777;52.254;9.618;2022-10-26T04:09:40;11.00;99.90
15355;DHT22;7777;52.254;9.618;2022-10-26T04:12:06;11.00;99.90
15355;DHT22;7777;52.254;9.618;2022-10-26T04:14:32;10.90;99.90
15355;DHT22;7777;52.254;9.618;2022-10-26T04:16:57;10.90;99.90
15355;DHT22;7777;52.254;9.618;2022-10-26T04:19:23;10.90;99.90
15355;DHT22;7777;52.254;9.618;2022-10-26T04:21:52;10.90;99.90
15355;DHT22;7777;52.254;9.618;2022-10-26T04:24:18;10.90;99.90
15355;DHT22;7777;52.254;9.618;2022-10-26T04:26:43;10.90;99.90
15355;DHT22;7777;52.254;9.618;2022-10-26T04:29:10;10.80;99.90
15355;DHT22;7777;52.254;9.618;2022-10-26T04:31:36;10.80;99.90
15355;DHT22;7777;52.254;9.618;2022-10-26T04:34:02;10.80;99.90
15355;DHT22;7777;52.254;9.618;2022-10-26T04:36:29;10.80;99.90
15355;DHT22;7777;52.254;9.618;2022-10-26T04:38:55;10.80;99.90
15355;DHT22;7777;52.254;9.618;2022-10-26T04:41:20;10.80;99.90
15355;DHT22;7777;52.254;9.618;2022-10-26T04:43:46;10.80;99.90
15355;DHT22;7777;52.254;9.618;2022-10-26T04:46:12;10.80;99.90
15355;DHT22;7777;52.254;9.618;2022-10-26T04:48:39;10.80;99.90
15355;DHT22;7777;52.254;9.618;2022-10-26T04:51:04;10.80;99.90
15355;DHT22;7777;52.254;9.618;2022-10-26T04:53:30;10.70;99.90
15355;DHT22;7777;52.254;9.618;2022-10-26T04:55:57;10.70;99.90
15355;DHT22;7777;52.254;9.618;2022-10-26T04:58:24;10.70;99.90
15355;DHT22;7777;52.254;9.618;2022-10-26T05:00:50;10.70;99.90
15355;DHT22;7777;52.254;9.618;2022-10-26T05:03:16;10.70;99.90
15355;DHT22;7777;52.254;9.618;2022-10-26T05:05:41;10.70;99.90
15355;DHT22;7777;52.254;9.618;2022-10-26T05:08:07;10.60;99.90
15355;DHT22;7777;52.254;9.618;2022-10-26T05:10:33;10.60;99.90
15355;DHT22;7777;52.254;9.618;2022-10-26T05:13:00;10.60;99.90
15355;DHT22;7777;52.254;9.618;2022-10-26T05:15:27;10.60;99.90
15355;DHT22;7777;52.254;9.618;2022-10-26T05:18:01;10.60;99.90
15355;DHT22;7777;52.254;9.618;2022-10-26T05:20:29;10.50;99.90
15355;DHT22;7777;52.254;9.618;2022-10-26T05:22:57;10.50;99.90
15355;DHT22;7777;52.254;9.618;2022-10-26T05:25:24;10.50;99.90
15355;DHT22;7777;52.254;9.618;2022-10-26T05:27:50;10.50;99.90
15355;DHT22;7777;52.254;9.618;2022-10-26T05:30:16;10.50;99.90
15355;DHT22;7777;52.254;9.618;2022-10-26T05:32:41;10.50;99.90
15355;DHT22;7777;52.254;9.618;2022-10-26T05:35:07;10.40;99.90
15355;DHT22;7777;52.254;9.618;2022-10-26T05:37:33;10.40;99.90
15355;DHT22;7777;52.254;9.618;2022-10-26T05:39:59;10.50;99.90
15355;DHT22;7777;52.254;9.618;2022-10-26T05:42:24;10.50;99.90
15355;DHT22;7777;52.254;9.618;2022-10-26T05:44:50;10.50;99.90
15355;DHT22;7777;52.254;9.618;2022-10-26T05:47:16;10.50;99.90
15355;DHT22;7777;52.254;9.618;2022-10-26T05:49:41;10.50;99.90
15355;DHT22;7777;52.254;9.618;2022-10-26T05:52:07;10.50;99.90
15355;DHT22;7777;52.254;9.618;2022-10-26T05:54:33;10.50;99.90
15355;DHT22;7777;52.254;9.618;2022-10-26T05:56:59;10.50;99.90
15355;DHT22;7777;52.254;9.618;2022-10-26T05:59:25;10.60;99.90
15355;DHT22;7777;52.254;9.618;2022-10-26T06:02:11;10.60;99.90
15355;DHT22;7777;52.254;9.618;2022-10-26T06:04:44;10.60;99.90
15355;DHT22;7777;52.254;9.618;2022-10-26T06:07:17;10.60;99.90
15355;DHT22;7777;52.254;9.618;2022-10-26T06:09:45;10.70;99.90
15355;DHT22;7777;52.254;9.618;2022-10-26T06:12:12;10.70;99.90
15355;DHT22;7777;52.254;9.618;2022-10-26T06:14:39;10.60;99.90
15355;DHT22;7777;52.254;9.618;2022-10-26T06:17:36;10.70;99.90
15355;DHT22;7777;52.254;9.618;2022-10-26T06:26:17;10.70;99.90
15355;DHT22;7777;52.254;9.618;2022-10-26T06:29:06;10.70;99.90
15355;DHT22;7777;52.254;9.618;2022-10-26T06:31:35;10.70;99.90
15355;DHT22;7777;52.254;9.618;2022-10-26T06:34:00;10.70;99.90
15355;DHT22;7777;52.254;9.618;2022-10-26T06:36:27;10.70;99.90
15355;DHT22;7777;52.254;9.618;2022-10-26T06:39:02;10.70;99.90
15355;DHT22;7777;52.254;9.618;2022-10-26T06:41:34;10.80;99.90
15355;DHT22;7777;52.254;9.618;2022-10-26T06:44:01;10.80;99.90
15355;DHT22;7777;52.254;9.618;2022-10-26T06:46:51;10.80;99.90
15355;DHT22;7777;52.254;9.618;2022-10-26T06:52:11;10.80;99.90
15355;DHT22;7777;52.254;9.618;2022-10-26T06:54:47;10.90;99.90
15355;DHT22;7777;52.254;9.618;2022-10-26T06:57:18;10.90;99.90
15355;DHT22;7777;52.254;9.618;2022-10-26T07:00:22;11.00;99.90
15355;DHT22;7777;52.254;9.618;2022-10-26T07:02:49;11.00;99.90
15355;DHT22;7777;52.254;9.618;2022-10-26T07:05:16;11.00;99.90
15355;DHT22;7777;52.254;9.618;2022-10-26T07:07:46;11.00;99.90
15355;DHT22;7777;52.254;9.618;2022-10-26T07:10:13;11.10;99.90
15355;DHT22;7777;52.254;9.618;2022-10-26T07:12:39;11.10;99.90
15355;DHT22;7777;52.254;9.618;2022-10-26T07:15:08;11.10;99.90
15355;DHT22;7777;52.254;9.618;2022-10-26T07:17:44;11.20;99.90
15355;DHT22;7777;52.254;9.618;2022-10-26T07:20:13;11.20;99.90
15355;DHT22;7777;52.254;9.618;2022-10-26T07:22:39;11.20;99.90
15355;DHT22;7777;52.254;9.618;2022-10-26T07:25:07;11.30;99.90
15355;DHT22;7777;52.254;9.618;2022-10-26T07:27:34;11.30;99.90
15355;DHT22;7777;52.254;9.618;2022-10-26T07:30:00;11.30;99.90
15355;DHT22;7777;52.254;9.618;2022-10-26T07:32:26;11.40;99.90
15355;DHT22;7777;52.254;9.618;2022-10-26T07:34:52;11.40;99.90
15355;DHT22;7777;52.254;9.618;2022-10-26T07:37:18;11.50;99.90
15355;DHT22;7777;52.254;9.618;2022-10-26T07:39:43;11.50;99.90
15355;DHT22;7777;52.254;9.618;2022-10-26T07:42:09;11.50;99.90
15355;DHT22;7777;52.254;9.618;2022-10-26T07:44:35;11.50;99.90
15355;DHT22;7777;52.254;9.618;2022-10-26T07:47:01;11.60;99.90
15355;DHT22;7777;52.254;9.618;2022-10-26T07:49:26;11.60;99.90
15355;DHT22;7777;52.254;9.618;2022-10-26T07:51:52;11.60;99.90
15355;DHT22;7777;52.254;9.618;2022-10-26T07:54:18;11.70;99.90
15355;DHT22;7777;52.254;9.618;2022-10-26T07:56:43;11.70;99.90
15355;DHT22;7777;52.254;9.618;2022-10-26T07:59:12;11.70;99.90
15355;DHT22;7777;52.254;9.618;2022-10-26T08:01:38;11.70;99.90
15355;DHT22;7777;52.254;9.618;2022-10-26T08:04:03;11.80;99.90
15355;DHT22;7777;52.254;9.618;2022-10-26T08:06:29;11.80;99.90
15355;DHT22;7777;52.254;9.618;2022-10-26T08:08:55;11.80;99.90
15355;DHT22;7777;52.254;9.618;2022-10-26T08:11:20;11.90;99.90
15355;DHT22;7777;52.254;9.618;2022-10-26T08:13:46;11.90;99.90
15355;DHT22;7777;52.254;9.618;2022-10-26T08:16:12;11.90;99.90
15355;DHT22;7777;52.254;9.618;2022-10-26T08:18:38;12.00;99.90
15355;DHT22;7777;52.254;9.618;2022-10-26T08:21:06;12.00;99.90
15355;DHT22;7777;52.254;9.618;2022-10-26T08:23:35;12.00;99.90
15355;DHT22;7777;52.254;9.618;2022-10-26T08:26:01;12.00;99.90
15355;DHT22;7777;52.254;9.618;2022-10-26T08:28:28;12.10;99.90
15355;DHT22;7777;52.254;9.618;2022-10-26T08:30:55;12.10;99.90
15355;DHT22;7777;52.254;9.618;2022-10-26T08:33:21;12.10;99.90
15355;DHT22;7777;52.254;9.618;2022-10-26T08:35:48;12.10;99.90
15355;DHT22;7777;52.254;9.618;2022-10-26T08:38:19;12.20;99.90
15355;DHT22;7777;52.254;9.618;2022-10-26T08:40:45;12.20;99.90
15355;DHT22;7777;52.254;9.618;2022-10-26T08:43:22;12.30;99.90
15355;DHT22;7777;52.254;9.618;2022-10-26T08:46:45;12.40;99.90
15355;DHT22;7777;52.254;9.618;2022-10-26T08:49:38;12.40;99.90
15355;DHT22;7777;52.254;9.618;2022-10-26T08:52:11;12.50;99.90
15355;DHT22;7777;52.254;9.618;2022-10-26T08:54:49;12.60;99.90
15355;DHT22;7777;52.254;9.618;2022-10-26T08:57:40;12.60;99.90
15355;DHT22;7777;52.254;9.618;2022-10-26T09:00:17;12.70;99.90
15355;DHT22;7777;52.254;9.618;2022-10-26T09:02:49;12.70;99.90
15355;DHT22;7777;52.254;9.618;2022-10-26T09:05:17;12.80;99.90
15355;DHT22;7777;52.254;9.618;2022-10-26T09:10:55;12.90;99.90
15355;DHT22;7777;52.254;9.618;2022-10-26T09:13:40;13.00;99.90
15355;DHT22;7777;52.254;9.618;2022-10-26T09:16:42;13.10;99.90
15355;DHT22;7777;52.254;9.618;2022-10-26T09:19:49;13.20;99.90
15355;DHT22;7777;52.254;9.618;2022-10-26T09:22:32;13.30;99.90
15355;DHT22;7777;52.254;9.618;2022-10-26T09:25:21;13.40;99.90
15355;DHT22;7777;52.254;9.618;2022-10-26T09:27:50;13.50;99.90
15355;DHT22;7777;52.254;9.618;2022-10-26T09:30:20;13.50;99.90
15355;DHT22;7777;52.254;9.618;2022-10-26T09:33:30;13.60;99.90
15355;DHT22;7777;52.254;9.618;2022-10-26T09:36:04;13.80;99.90
15355;DHT22;7777;52.254;9.618;2022-10-26T09:38:34;13.90;99.90
15355;DHT22;7777;52.254;9.618;2022-10-26T09:41:19;14.00;99.90
15355;DHT22;7777;52.254;9.618;2022-10-26T09:43:57;14.10;99.90
15355;DHT22;7777;52.254;9.618;2022-10-26T09:46:30;14.20;99.90
15355;DHT22;7777;52.254;9.618;2022-10-26T09:49:20;14.40;99.90
15355;DHT22;7777;52.254;9.618;2022-10-26T09:51:54;14.40;99.90
15355;DHT22;7777;52.254;9.618;2022-10-26T09:54:20;14.50;99.90
15355;DHT22;7777;52.254;9.618;2022-10-26T09:56:55;14.60;99.90
15355;DHT22;7777;52.254;9.618;2022-10-26T09:59:24;14.70;99.90
15355;DHT22;7777;52.254;9.618;2022-10-26T10:01:50;14.80;99.90
15355;DHT22;7777;52.254;9.618;2022-10-26T10:04:18;14.90;99.90
15355;DHT22;7777;52.254;9.618;2022-10-26T10:06:49;14.90;99.90
15355;DHT22;7777;52.254;9.618;2022-10-26T10:09:21;15.00;99.90
15355;DHT22;7777;52.254;9.618;2022-10-26T10:11:53;15.00;99.90
15355;DHT22;7777;52.254;9.618;2022-10-26T10:14:53;15.10;99.90
15355;DHT22;7777;52.254;9.618;2022-10-26T10:17:22;15.10;99.90
15355;DHT22;7777;52.254;9.618;2022-10-26T10:19:48;15.20;99.90
15355;DHT22;7777;52.254;9.618;2022-10-26T10:24:42;15.30;99.90
15355;DHT22;7777;52.254;9.618;2022-10-26T10:27:18;15.40;99.90
15355;DHT22;7777;52.254;9.618;2022-10-26T10:29:49;15.40;99.90
15355;DHT22;7777;52.254;9.618;2022-10-26T10:32:19;15.50;99.90
15355;DHT22;7777;52.254;9.618;2022-10-26T10:34:49;15.50;99.90
15355;DHT22;7777;52.254;9.618;2022-10-26T10:42:39;15.70;99.90
15355;DHT22;7777;52.254;9.618;2022-10-26T10:45:22;15.70;99.90
15355;DHT22;7777;52.254;9.618;2022-10-26T10:50:38;15.80;99.90
15355;DHT22;7777;52.254;9.618;2022-10-26T11:04:59;15.90;99.90
15355;DHT22;7777;52.254;9.618;2022-10-26T11:07:41;15.90;99.90
15355;DHT22;7777;52.254;9.618;2022-10-26T11:10:14;16.00;99.90
15355;DHT22;7777;52.254;9.618;2022-10-26T11:12:57;16.00;99.90
15355;DHT22;7777;52.254;9.618;2022-10-26T11:15:27;16.10;99.90
15355;DHT22;7777;52.254;9.618;2022-10-26T11:20:46;16.10;99.90
15355;DHT22;7777;52.254;9.618;2022-10-26T11:23:24;16.20;99.90
15355;DHT22;7777;52.254;9.618;2022-10-26T11:26:21;16.30;99.90
15355;DHT22;7777;52.254;9.618;2022-10-26T11:28:58;16.30;99.90
15355;DHT22;7777;52.254;9.618;2022-10-26T11:31:37;16.30;99.90
15355;DHT22;7777;52.254;9.618;2022-10-26T11:36:51;16.50;99.90
15355;DHT22;7777;52.254;9.618;2022-10-26T11:39:45;16.50;99.90
15355;DHT22;7777;52.254;9.618;2022-10-26T11:42:24;16.60;99.90
15355;DHT22;7777;52.254;9.618;2022-10-26T11:44:58;16.70;99.90
15355;DHT22;7777;52.254;9.618;2022-10-26T11:47:42;16.80;99.90
15355;DHT22;7777;52.254;9.618;2022-10-26T11:50:23;16.90;99.90
15355;DHT22;7777;52.254;9.618;2022-10-26T11:52:59;17.00;99.90
15355;DHT22;7777;52.254;9.618;2022-10-26T11:55:27;17.10;99.90
15355;DHT22;7777;52.254;9.618;2022-10-26T11:57:54;17.10;99.90
15355;DHT22;7777;52.254;9.618;2022-10-26T12:00:21;17.20;99.90
15355;DHT22;7777;52.254;9.618;2022-10-26T12:03:06;17.20;99.90
15355;DHT22;7777;52.254;9.618;2022-10-26T12:05:50;17.20;99.90
15355;DHT22;7777;52.254;9.618;2022-10-26T12:08:29;17.30;99.90
15355;DHT22;7777;52.254;9.618;2022-10-26T12:11:20;17.40;99.90
15355;DHT22;7777;52.254;9.618;2022-10-26T12:14:16;17.40;99.90
15355;DHT22;7777;52.254;9.618;2022-10-26T12:19:33;17.50;99.90
15355;DHT22;7777;52.254;9.618;2022-10-26T12:22:11;17.60;99.90
15355;DHT22;7777;52.254;9.618;2022-10-26T12:24:44;17.60;99.90
15355;DHT22;7777;52.254;9.618;2022-10-26T12:27:31;17.70;99.90
15355;DHT22;7777;52.254;9.618;2022-10-26T12:33:00;17.70;99.90
15355;DHT22;7777;52.254;9.618;2022-10-26T12:35:38;17.80;99.90
15355;DHT22;7777;52.254;9.618;2022-10-26T12:38:25;17.90;99.90
15355;DHT22;7777;52.254;9.618;2022-10-26T12:41:20;18.00;99.90
15355;DHT22;7777;52.254;9.618;2022-10-26T12:43:49;18.20;99.90
15355;DHT22;7777;52.254;9.618;2022-10-26T12:48:42;18.40;99.90
15355;DHT22;7777;52.254;9.618;2022-10-26T12:59:42;18.60;99.90
15355;DHT22;7777;52.254;9.618;2022-10-26T13:08:07;18.80;99.90
15355;DHT22;7777;52.254;9.618;2022-10-26T13:10:36;18.90;99.90
15355;DHT22;7777;52.254;9.618;2022-10-26T13:13:05;18.90;99.90
15355;DHT22;7777;52.254;9.618;2022-10-26T13:15:38;18.90;99.90
15355;DHT22;7777;52.254;9.618;2022-10-26T13:18:13;18.80;99.90
15355;DHT22;7777;52.254;9.618;2022-10-26T13:23:29;18.80;99.90
15355;DHT22;7777;52.254;9.618;2022-10-26T13:33:51;18.70;99.90
15355;DHT22;7777;52.254;9.618;2022-10-26T13:36:50;18.80;99.90
15355;DHT22;7777;52.254;9.618;2022-10-26T13:39:31;18.70;99.90
15355;DHT22;7777;52.254;9.618;2022-10-26T13:42:19;18.60;99.90
15355;DHT22;7777;52.254;9.618;2022-10-26T13:45:07;18.60;99.90
15355;DHT22;7777;52.254;9.618;2022-10-26T13:53:25;18.40;99.90
15355;DHT22;7777;52.254;9.618;2022-10-26T13:56:11;18.40;99.90
15355;DHT22;7777;52.254;9.618;2022-10-26T13:58:48;18.40;99.90
15355;DHT22;7777;52.254;9.618;2022-10-26T14:01:35;18.40;99.90
15355;DHT22;7777;52.254;9.618;2022-10-26T14:04:15;18.30;99.90
15355;DHT22;7777;52.254;9.618;2022-10-26T14:06:47;18.30;99.90
15355;DHT22;7777;52.254;9.618;2022-10-26T14:09:18;18.30;99.90
15355;DHT22;7777;52.254;9.618;2022-10-26T14:11:56;18.20;99.90
15355;DHT22;7777;52.254;9.618;2022-10-26T14:14:32;18.20;99.90
15355;DHT22;7777;52.254;9.618;2022-10-26T14:16:59;18.20;99.90
15355;DHT22;7777;52.254;9.618;2022-10-26T14:22:19;18.20;99.90
15355;DHT22;7777;52.254;9.618;2022-10-26T14:24:56;18.20;99.90
15355;DHT22;7777;52.254;9.618;2022-10-26T14:27:25;18.20;99.90
15355;DHT22;7777;52.254;9.618;2022-10-26T14:29:58;18.20;99.90
15355;DHT22;7777;52.254;9.618;2022-10-26T14:32:30;18.20;99.90
15355;DHT22;7777;52.254;9.618;2022-10-26T14:35:01;18.20;99.90
15355;DHT22;7777;52.254;9.618;2022-10-26T14:37:51;18.20;99.90
15355;DHT22;7777;52.254;9.618;2022-10-26T14:40:36;18.20;99.90
15355;DHT22;7777;52.254;9.618;2022-10-26T14:43:03;18.20;99.90
15355;DHT22;7777;52.254;9.618;2022-10-26T14:45:35;18.20;99.90
15355;DHT22;7777;52.254;9.618;2022-10-26T14:48:04;18.20;99.90
15355;DHT22;7777;52.254;9.618;2022-10-26T14:50:31;18.20;99.90
15355;DHT22;7777;52.254;9.618;2022-10-26T14:53:10;18.10;99.90
15355;DHT22;7777;52.254;9.618;2022-10-26T14:55:45;18.10;99.90
15355;DHT22;7777;52.254;9.618;2022-10-26T14:58:21;18.10;99.90
15355;DHT22;7777;52.254;9.618;2022-10-26T15:04:03;18.00;99.90
15355;DHT22;7777;52.254;9.618;2022-10-26T15:06:40;18.00;99.90
15355;DHT22;7777;52.254;9.618;2022-10-26T15:09:31;18.00;99.90
15355;DHT22;7777;52.254;9.618;2022-10-26T15:12:03;17.90;99.90
15355;DHT22;7777;52.254;9.618;2022-10-26T15:14:30;17.80;99.90
15355;DHT22;7777;52.254;9.618;2022-10-26T15:16:58;17.80;99.90
15355;DHT22;7777;52.254;9.618;2022-10-26T15:19:26;17.80;99.90
15355;DHT22;7777;52.254;9.618;2022-10-26T15:21:59;17.80;99.90
15355;DHT22;7777;52.254;9.618;2022-10-26T15:24:29;17.80;99.90
15355;DHT22;7777;52.254;9.618;2022-10-26T15:27:03;17.70;99.90
15355;DHT22;7777;52.254;9.618;2022-10-26T15:29:38;17.60;99.90
15355;DHT22;7777;52.254;9.618;2022-10-26T15:32:24;17.70;99.90
15355;DHT22;7777;52.254;9.618;2022-10-26T15:35:21;17.60;99.90
15355;DHT22;7777;52.254;9.618;2022-10-26T15:37:49;17.60;99.90
15355;DHT22;7777;52.254;9.618;2022-10-26T15:40:17;17.60;99.90
15355;DHT22;7777;52.254;9.618;2022-10-26T15:42:48;17.50;99.90
15355;DHT22;7777;52.254;9.618;2022-10-26T15:47:45;17.40;99.90
15355;DHT22;7777;52.254;9.618;2022-10-26T15:50:17;17.40;99.90
15355;DHT22;7777;52.254;9.618;2022-10-26T15:52:44;17.40;99.90
15355;DHT22;7777;52.254;9.618;2022-10-26T15:55:10;17.30;99.90
15355;DHT22;7777;52.254;9.618;2022-10-26T15:57:36;17.40;99.90
15355;DHT22;7777;52.254;9.618;2022-10-26T16:00:04;17.30;99.90
15355;DHT22;7777;52.254;9.618;2022-10-26T16:02:33;17.20;99.90
15355;DHT22;7777;52.254;9.618;2022-10-26T16:05:00;17.20;99.90
15355;DHT22;7777;52.254;9.618;2022-10-26T16:07:26;17.10;99.90
15355;DHT22;7777;52.254;9.618;2022-10-26T16:09:53;17.00;99.90
15355;DHT22;7777;52.254;9.618;2022-10-26T16:12:19;17.00;99.90
15355;DHT22;7777;52.254;9.618;2022-10-26T16:14:45;16.90;99.90
15355;DHT22;7777;52.254;9.618;2022-10-26T16:17:10;16.90;99.90
15355;DHT22;7777;52.254;9.618;2022-10-26T16:19:36;16.80;99.90
15355;DHT22;7777;52.254;9.618;2022-10-26T16:22:02;16.80;99.90
15355;DHT22;7777;52.254;9.618;2022-10-26T16:24:29;16.70;99.90
15355;DHT22;7777;52.254;9.618;2022-10-26T16:26:55;16.60;99.90
15355;DHT22;7777;52.254;9.618;2022-10-26T16:29:22;16.50;99.90
15355;DHT22;7777;52.254;9.618;2022-10-26T16:31:48;16.50;99.90
15355;DHT22;7777;52.254;9.618;2022-10-26T16:34:14;16.40;99.90
15355;DHT22;7777;52.254;9.618;2022-10-26T16:36:40;16.30;99.90
15355;DHT22;7777;52.254;9.618;2022-10-26T16:39:06;16.30;99.90
15355;DHT22;7777;52.254;9.618;2022-10-26T16:41:33;16.20;99.90
15355;DHT22;7777;52.254;9.618;2022-10-26T16:43:59;16.10;99.90
15355;DHT22;7777;52.254;9.618;2022-10-26T16:46:25;16.00;99.90
15355;DHT22;7777;52.254;9.618;2022-10-26T16:48:51;16.00;99.90
15355;DHT22;7777;52.254;9.618;2022-10-26T16:51:20;15.90;99.90
15355;DHT22;7777;52.254;9.618;2022-10-26T16:53:48;15.80;99.90
15355;DHT22;7777;52.254;9.618;2022-10-26T16:56:21;15.80;99.90
15355;DHT22;7777;52.254;9.618;2022-10-26T16:58:49;15.70;99.90
15355;DHT22;7777;52.254;9.618;2022-10-26T17:01:16;15.60;99.90
15355;DHT22;7777;52.254;9.618;2022-10-26T17:03:44;15.60;99.90
15355;DHT22;7777;52.254;9.618;2022-10-26T17:06:14;15.50;99.90
15355;DHT22;7777;52.254;9.618;2022-10-26T17:08:42;15.50;99.90
15355;DHT22;7777;52.254;9.618;2022-10-26T17:11:13;15.50;99.90
15355;DHT22;7777;52.254;9.618;2022-10-26T17:13:41;15.40;99.90
15355;DHT22;7777;52.254;9.618;2022-10-26T17:16:16;15.40;99.90
15355;DHT22;7777;52.254;9.618;2022-10-26T17:18:43;15.30;99.90
15355;DHT22;7777;52.254;9.618;2022-10-26T17:21:11;15.30;99.90
15355;DHT22;7777;52.254;9.618;2022-10-26T17:23:38;15.30;99.90
15355;DHT22;7777;52.254;9.618;2022-10-26T17:26:05;15.20;99.90
15355;DHT22;7777;52.254;9.618;2022-10-26T17:28:32;15.20;99.90
15355;DHT22;7777;52.254;9.618;2022-10-26T17:31:05;15.10;99.90
15355;DHT22;7777;52.254;9.618;2022-10-26T17:33:34;15.10;99.90
15355;DHT22;7777;52.254;9.618;2022-10-26T17:36:02;15.10;99.90
15355;DHT22;7777;52.254;9.618;2022-10-26T17:38:30;15.00;99.90
15355;DHT22;7777;52.254;9.618;2022-10-26T17:41:12;15.00;99.90
15355;DHT22;7777;52.254;9.618;2022-10-26T17:43:39;15.00;99.90
15355;DHT22;7777;52.254;9.618;2022-10-26T17:46:10;14.90;99.90
15355;DHT22;7777;52.254;9.618;2022-10-26T17:48:37;14.90;99.90
15355;DHT22;7777;52.254;9.618;2022-10-26T17:51:06;14.90;99.90
15355;DHT22;7777;52.254;9.618;2022-10-26T17:53:34;14.90;99.90
15355;DHT22;7777;52.254;9.618;2022-10-26T17:56:11;14.90;99.90
15355;DHT22;7777;52.254;9.618;2022-10-26T17:58:39;14.90;99.90
15355;DHT22;7777;52.254;9.618;2022-10-26T18:01:07;14.90;99.90
15355;DHT22;7777;52.254;9.618;2022-10-26T18:03:35;14.90;99.90